Nearby METAR Reports

EGNX - East Midlands, United Kingdom
Distance: S 18mi, 28km
Updated: 06/07/2020 21:20
Clear
Clear
 Wind from W
Wind: W 7 mph , 11 km/h
Temperature: 12°C
Dew Point: 6°C
Humidity: 67%
Barometer: 1022 hPa
Summary: Clear
Visibility: greater than 7 miles , 10 km
2020/07/06 20:20 EGNX 062020Z 26006KT CAVOK 12/06 Q1022
EGCN - Doncaster Sheffi, United Kingdom
Distance: NNE 31mi, 50km
Updated: 06/07/2020 21:50
Clear
Clear
 Wind from WNW
Wind: WNW 10 mph , 17 km/h
Temperature: 13°C
Dew Point: 7°C
Humidity: 67%
Barometer: 1022 hPa
Summary: Clear
Visibility: greater than 7 miles , 10 km
2020/07/06 20:50 EGCN 062050Z 29009KT CAVOK 13/07 Q1022
EGYE - Barkston Heath R, United Kingdom
Distance: ESE 31mi, 50km
Updated: 06/07/2020 15:50
NOT Current
Mostly cloudy
Mostly cloudy
 Wind from W
Wind: W 20 mph , 31 km/h
Barometer: 1019 hPa
Clouds: Mostly cloudy
Visibility: 6 miles , 10 km
Cloud details: Mostly cloudy 1067 m
Mostly cloudy 2134 m
2020/07/06 14:50 EGYE 061450Z 28017KT 9999 BKN035 BKN070 ///// Q1019 RMK BLU
 
EGXW - Waddington Raf, United Kingdom
Distance: ENE 33mi, 53km
Updated: 06/07/2020 20:50
Clear
Clear
 Wind from WNW
Wind: WNW 14 mph , 22 km/h
Temperature: 16°C
Dew Point: 5°C
Humidity: 48%
Barometer: 1021 hPa
Clouds: Clear
Visibility: 6 miles , 10 km
2020/07/06 19:50 EGXW 061950Z AUTO 29012KT 9999 NCD 16/05 Q1021
EGYD - Cranwell Raf, United Kingdom
Distance: E 33mi, 53km
Updated: 06/07/2020 20:50
Clear
Clear
 Wind from W
Wind: W 10 mph , 17 km/h
Temperature: 15°C
Dew Point: 6°C
Humidity: 55%
Barometer: 1021 hPa
Clouds: Clear
Visibility: 6 miles , 10 km
2020/07/06 19:50 EGYD 061950Z AUTO 28009KT 9999 // NCD 15/06 Q1021
EGXP - Scampton Raf, United Kingdom
Distance: ENE 35mi, 56km
Updated: 06/07/2020 20:50
Clear
Clear
 Wind from WNW
Wind: WNW 13 mph , 20 km/h
Temperature: 15°C
Dew Point: 6°C
Humidity: 55%
Barometer: 1020 hPa
Clouds: Clear
Visibility: 6 miles , 10 km
2020/07/06 19:50 EGXP 061950Z AUTO 29011KT 9999 // NCD 15/06 Q1020
 
EGCC - Manchester Intl, United Kingdom
Distance: WNW 45mi, 72km
Updated: 06/07/2020 21:50
Mostly cloudy
Mostly cloudy
 Wind from WSW
Wind: WSW 5 mph , 7 km/h
Temperature: 12°C
Dew Point: 9°C
Humidity: 82%
Barometer: 1022 hPa
Clouds: Mostly cloudy
Visibility: 6 miles , 10 km
Cloud details: Mostly cloudy 1158 m
2020/07/06 20:50 EGCC 062050Z AUTO 24004KT 9999 BKN038 12/09 Q1022
EGBB - Birmingham Airpo, United Kingdom
Distance: SSW 46mi, 74km
Updated: 06/07/2020 21:50
Few Clouds
Few Clouds
 Wind from NW
Wind: NW 7 mph , 11 km/h
Temperature: 15°C
Dew Point: 6°C
Humidity: 55%
Barometer: 1023 hPa
Clouds: Few Clouds
Visibility: 6 miles , 10 km
Cloud details: Few Clouds 1280 m
2020/07/06 20:50 EGBB 062050Z 31006KT 9999 FEW042 15/06 Q1023
EGXC - Coningsby Raf, United Kingdom
Distance: E 47mi, 75km
Updated: 06/07/2020 21:50
Clear
Clear
 Wind from WNW
Wind: WNW 10 mph , 17 km/h
Temperature: 15°C
Dew Point: 6°C
Humidity: 55%
Barometer: 1021 hPa
Summary: Clear
Visibility: greater than 7 miles , 10 km
2020/07/06 20:50 EGXC 062050Z 29009KT CAVOK 15/06 Q1021 RMK BLU
 
EGXT - Wittering Raf, United Kingdom
Distance: SE 47mi, 75km
Updated: 06/07/2020 20:50
Clear
Clear
 Wind from W
Wind: W 16 mph , 26 km/h
Temperature: 15°C
Dew Point: 6°C
Humidity: 55%
Barometer: 1021 hPa
Clouds: Clear
Visibility: 6 miles , 10 km
2020/07/06 19:50 EGXT 061950Z AUTO 28014KT 9999 NCD 15/06 Q1021
EGNJ - Humberside, United Kingdom
Distance: NE 52mi, 83km
Updated: 06/07/2020 21:50
Clear
Clear
 Wind from WSW
Wind: WSW 8 mph , 13 km/h
Temperature: 14°C
Dew Point: 8°C
Humidity: 67%
Barometer: 1021 hPa
Clouds: Clear
Visibility: 6 miles , 10 km
2020/07/06 20:50 EGNJ 062050Z AUTO 25007KT 9999 NCD 14/08 Q1021
EGWC - Cosford Raf, United Kingdom
Distance: SW 52mi, 83km
Updated: 06/07/2020 15:50
NOT Current
Mostly cloudy
Mostly cloudy
 Wind from NW
Wind: NW 13 mph , 20 km/h
Temperature: 18°C
Dew Point: 6°C
Humidity: 46%
Barometer: 1022 hPa
Clouds: Mostly cloudy
Visibility: 6 miles , 10 km
Cloud details: Mostly cloudy 853 m
2020/07/06 14:50 EGWC 061450Z 31011KT 9999 BKN028 18/06 Q1022 RMK BLU
 
EGNM - Leeds And Bradfo, United Kingdom
Distance: NNW 57mi, 91km
Updated: 06/07/2020 21:50
Few Clouds
Few Clouds
 Wind from W
Wind: W 17 mph , 28 km/h
Temperature: 12°C
Dew Point: 8°C
Humidity: 77%
Barometer: 1021 hPa
Clouds: Few Clouds
Visibility: 6 miles , 10 km
Cloud details: Few Clouds 1036 m
2020/07/06 20:50 EGNM 062050Z 26015KT 9999 FEW034 12/08 Q1021
EGOS - Shawbury Raf, United Kingdom
Distance: WSW 60mi, 97km
Updated: 06/07/2020 21:50
Mostly cloudy
Mostly cloudy
 Wind from W
Wind: W 7 mph , 11 km/h
Temperature: 14°C
Dew Point: 9°C
Humidity: 72%
Barometer: 1023 hPa
Clouds: Mostly cloudy
Visibility: 6 miles , 10 km
Cloud details: Few Clouds 1219 m
Mostly cloudy 1829 m
2020/07/06 20:50 EGOS 062050Z 28006KT 9999 FEW040 BKN060 14/09 Q1023 NOSIG RMK BLU BLU
EGYH - Holbeach (aut), United Kingdom
Distance: ESE 62mi, 99km
Updated: 06/07/2020 15:50
NOT Current
Partly cloudy
Partly cloudy
 Wind from E
Wind: E 10 mph , 17 km/h
Temperature: 17°C
Dew Point: 10°C
Humidity: 64%
Barometer: 1019 hPa
Clouds: Partly cloudy
Visibility: 6 miles , 10 km
Cloud details: Few Clouds 914 m
Partly cloudy 1524 m
2020/07/06 14:50 EGYH 061450Z 10009KT 9999 FEW030 SCT050 17/10 Q1019 RMK BLU
 
EGXV - Leconfield (aut), United Kingdom
Distance: NNE 65mi, 105km
Updated: 06/07/2020 20:50
Few Clouds
Few Clouds
 Wind from W
Wind: W 9 mph , 15 km/h
Temperature: 15°C
Dew Point: 9°C
Humidity: 68%
Barometer: 1019 hPa
Clouds: Few Clouds
Visibility: 6 miles , 10 km
Cloud details: Few Clouds 1524 m
2020/07/06 19:50 EGXV 061950Z AUTO 27008KT 9999 FEW050/// 15/09 Q1019
EGXS - Donna Nook Raf, United Kingdom
Distance: ENE 66mi, 106km
Updated: 06/07/2020 20:50
Mostly cloudy
Mostly cloudy
 Wind from S
Wind: S 7 mph , 11 km/h
Temperature: 13°C
Dew Point: 10°C
Humidity: 82%
Barometer: 1020 hPa
Clouds: Mostly cloudy
Visibility: 6 miles , 10 km
Cloud details: Mostly cloudy 1341 m
2020/07/06 19:50 EGXS 061950Z AUTO 18006KT 9999 // BKN044/// 13/10 Q1020
EGGP - Liverpool Airpor, United Kingdom
Distance: WNW 67mi, 107km
Updated: 06/07/2020 21:50
Partly cloudy
Partly cloudy
 Wind from W
Wind: W 14 mph , 22 km/h
Temperature: 15°C
Dew Point: 10°C
Humidity: 72%
Barometer: 1022 hPa
Clouds: Partly cloudy
Visibility: 6 miles , 10 km
Cloud details: Few Clouds 1189 m
Partly cloudy 1494 m
2020/07/06 20:50 EGGP 062050Z 28012KT 9999 FEW039 SCT049 15/10 Q1022
 
EGXU - Linton-On-Ouse R, United Kingdom
Distance: N 68mi, 109km
Updated: 06/07/2020 20:50
Few Clouds
Few Clouds
 Wind from W
Wind: W 8 mph , 13 km/h
Temperature: 15°C
Dew Point: 8°C
Humidity: 63%
Barometer: 1020 hPa
Clouds: Few Clouds
Visibility: 6 miles , 10 km
Cloud details: Few Clouds 7620 m
2020/07/06 19:50 EGXU 061950Z AUTO 28007KT 9999 FEW250/// 15/08 Q1020
EGNR - Hawarden (aut), United Kingdom
Distance: W 70mi, 112km
Updated: 06/07/2020 19:20
NOT Current
Partly cloudy
Partly cloudy
 Wind from NW
Wind: NW 10 mph , 17 km/h
Temperature: 16°C
Dew Point: 8°C
Humidity: 59%
Barometer: 1023 hPa
Clouds: Partly cloudy
Visibility: 6 miles , 10 km
Cloud details: Partly cloudy 1128 m
2020/07/06 18:20 EGNR 061820Z 32009KT 9999 SCT037 16/08 Q1023